sensor_id;sensor_type;location;lat;lon;timestamp;P1;durP1;ratioP1;P2;durP2;ratioP2
19285;SDS011;9776;50.798;6.430;2023-08-20T00:00:27;4.85;;;2.63;;
19285;SDS011;9776;50.798;6.430;2023-08-20T00:02:57;5.70;;;2.47;;
19285;SDS011;9776;50.798;6.430;2023-08-20T00:05:29;5.75;;;2.60;;
19285;SDS011;9776;50.798;6.430;2023-08-20T00:07:56;5.57;;;2.53;;
19285;SDS011;9776;50.798;6.430;2023-08-20T00:10:23;4.32;;;2.30;;
19285;SDS011;9776;50.798;6.430;2023-08-20T00:12:51;2.92;;;2.25;;
19285;SDS011;9776;50.798;6.430;2023-08-20T00:15:17;4.88;;;2.58;;
19285;SDS011;9776;50.798;6.430;2023-08-20T00:17:45;3.40;;;2.50;;
19285;SDS011;9776;50.798;6.430;2023-08-20T00:20:13;6.40;;;2.70;;
19285;SDS011;9776;50.798;6.430;2023-08-20T00:22:41;3.78;;;2.58;;
19285;SDS011;9776;50.798;6.430;2023-08-20T00:25:10;3.35;;;2.30;;
19285;SDS011;9776;50.798;6.430;2023-08-20T00:27:38;5.15;;;2.72;;
19285;SDS011;9776;50.798;6.430;2023-08-20T00:30:07;4.15;;;2.85;;
19285;SDS011;9776;50.798;6.430;2023-08-20T00:32:34;3.50;;;2.38;;
19285;SDS011;9776;50.798;6.430;2023-08-20T00:35:01;3.88;;;2.38;;
19285;SDS011;9776;50.798;6.430;2023-08-20T00:37:28;7.85;;;2.72;;
19285;SDS011;9776;50.798;6.430;2023-08-20T00:39:56;3.53;;;2.30;;
19285;SDS011;9776;50.798;6.430;2023-08-20T00:42:23;4.72;;;2.60;;
19285;SDS011;9776;50.798;6.430;2023-08-20T00:44:50;5.82;;;2.50;;
19285;SDS011;9776;50.798;6.430;2023-08-20T00:47:19;5.47;;;2.55;;
19285;SDS011;9776;50.798;6.430;2023-08-20T00:49:46;3.20;;;2.53;;
19285;SDS011;9776;50.798;6.430;2023-08-20T00:52:14;5.00;;;2.30;;
19285;SDS011;9776;50.798;6.430;2023-08-20T00:54:43;4.20;;;2.45;;
19285;SDS011;9776;50.798;6.430;2023-08-20T00:57:11;3.75;;;2.35;;
19285;SDS011;9776;50.798;6.430;2023-08-20T00:59:40;4.90;;;2.60;;
19285;SDS011;9776;50.798;6.430;2023-08-20T01:02:08;5.15;;;2.47;;
19285;SDS011;9776;50.798;6.430;2023-08-20T01:04:36;5.68;;;2.83;;
19285;SDS011;9776;50.798;6.430;2023-08-20T01:07:04;5.82;;;2.50;;
19285;SDS011;9776;50.798;6.430;2023-08-20T01:09:43;3.90;;;2.63;;
19285;SDS011;9776;50.798;6.430;2023-08-20T01:12:16;3.90;;;2.72;;
19285;SDS011;9776;50.798;6.430;2023-08-20T01:14:43;3.70;;;2.42;;
19285;SDS011;9776;50.798;6.430;2023-08-20T01:17:10;3.85;;;2.45;;
19285;SDS011;9776;50.798;6.430;2023-08-20T01:19:38;5.25;;;2.55;;
19285;SDS011;9776;50.798;6.430;2023-08-20T01:22:09;4.75;;;2.85;;
19285;SDS011;9776;50.798;6.430;2023-08-20T01:24:56;3.00;;;2.40;;
19285;SDS011;9776;50.798;6.430;2023-08-20T01:27:33;5.22;;;2.63;;
19285;SDS011;9776;50.798;6.430;2023-08-20T01:30:11;7.97;;;2.70;;
19285;SDS011;9776;50.798;6.430;2023-08-20T01:32:38;8.23;;;2.45;;
19285;SDS011;9776;50.798;6.430;2023-08-20T01:35:07;3.78;;;2.50;;
19285;SDS011;9776;50.798;6.430;2023-08-20T01:37:37;6.50;;;2.45;;
19285;SDS011;9776;50.798;6.430;2023-08-20T01:40:04;4.15;;;2.45;;
19285;SDS011;9776;50.798;6.430;2023-08-20T01:42:32;4.28;;;2.53;;
19285;SDS011;9776;50.798;6.430;2023-08-20T01:44:59;3.50;;;2.58;;
19285;SDS011;9776;50.798;6.430;2023-08-20T01:47:27;6.07;;;2.83;;
19285;SDS011;9776;50.798;6.430;2023-08-20T01:49:53;4.05;;;2.35;;
19285;SDS011;9776;50.798;6.430;2023-08-20T01:52:20;4.78;;;2.72;;
19285;SDS011;9776;50.798;6.430;2023-08-20T01:54:47;3.63;;;2.47;;
19285;SDS011;9776;50.798;6.430;2023-08-20T01:57:14;5.75;;;2.70;;
19285;SDS011;9776;50.798;6.430;2023-08-20T01:59:41;3.40;;;2.63;;
19285;SDS011;9776;50.798;6.430;2023-08-20T02:02:08;4.60;;;2.60;;
19285;SDS011;9776;50.798;6.430;2023-08-20T02:04:36;4.57;;;2.70;;
19285;SDS011;9776;50.798;6.430;2023-08-20T02:07:03;3.90;;;2.60;;
19285;SDS011;9776;50.798;6.430;2023-08-20T02:09:29;4.68;;;2.83;;
19285;SDS011;9776;50.798;6.430;2023-08-20T02:11:56;6.65;;;2.55;;
19285;SDS011;9776;50.798;6.430;2023-08-20T02:14:22;5.68;;;2.70;;
19285;SDS011;9776;50.798;6.430;2023-08-20T02:16:49;5.40;;;2.70;;
19285;SDS011;9776;50.798;6.430;2023-08-20T02:19:16;3.20;;;2.30;;
19285;SDS011;9776;50.798;6.430;2023-08-20T02:21:44;5.00;;;2.60;;
19285;SDS011;9776;50.798;6.430;2023-08-20T02:24:10;4.13;;;2.60;;
19285;SDS011;9776;50.798;6.430;2023-08-20T02:26:37;3.60;;;2.40;;
19285;SDS011;9776;50.798;6.430;2023-08-20T02:29:04;3.03;;;2.28;;
19285;SDS011;9776;50.798;6.430;2023-08-20T02:31:30;6.30;;;2.78;;
19285;SDS011;9776;50.798;6.430;2023-08-20T02:33:57;4.15;;;2.40;;
19285;SDS011;9776;50.798;6.430;2023-08-20T02:36:24;5.22;;;2.50;;
19285;SDS011;9776;50.798;6.430;2023-08-20T02:38:52;3.63;;;2.30;;
19285;SDS011;9776;50.798;6.430;2023-08-20T02:41:18;5.95;;;2.70;;
19285;SDS011;9776;50.798;6.430;2023-08-20T02:43:45;5.53;;;2.53;;
19285;SDS011;9776;50.798;6.430;2023-08-20T02:46:12;4.13;;;2.47;;
19285;SDS011;9776;50.798;6.430;2023-08-20T02:48:39;4.00;;;2.58;;
19285;SDS011;9776;50.798;6.430;2023-08-20T02:51:06;4.55;;;2.33;;
19285;SDS011;9776;50.798;6.430;2023-08-20T02:53:33;4.13;;;2.75;;
19285;SDS011;9776;50.798;6.430;2023-08-20T02:56:01;4.75;;;2.30;;
19285;SDS011;9776;50.798;6.430;2023-08-20T02:58:28;3.45;;;2.60;;
19285;SDS011;9776;50.798;6.430;2023-08-20T03:00:55;3.28;;;2.53;;
19285;SDS011;9776;50.798;6.430;2023-08-20T03:03:22;3.58;;;2.33;;
19285;SDS011;9776;50.798;6.430;2023-08-20T03:05:49;6.30;;;2.80;;
19285;SDS011;9776;50.798;6.430;2023-08-20T03:08:16;5.78;;;2.40;;
19285;SDS011;9776;50.798;6.430;2023-08-20T03:10:43;3.80;;;2.50;;
19285;SDS011;9776;50.798;6.430;2023-08-20T03:13:11;5.75;;;3.05;;
19285;SDS011;9776;50.798;6.430;2023-08-20T03:15:39;5.60;;;3.20;;
19285;SDS011;9776;50.798;6.430;2023-08-20T03:18:06;5.47;;;3.30;;
19285;SDS011;9776;50.798;6.430;2023-08-20T03:20:32;4.80;;;3.28;;
19285;SDS011;9776;50.798;6.430;2023-08-20T03:22:59;6.50;;;3.25;;
19285;SDS011;9776;50.798;6.430;2023-08-20T03:25:26;4.35;;;3.20;;
19285;SDS011;9776;50.798;6.430;2023-08-20T03:27:53;7.22;;;4.10;;
19285;SDS011;9776;50.798;6.430;2023-08-20T03:30:21;5.88;;;3.72;;
19285;SDS011;9776;50.798;6.430;2023-08-20T03:32:48;5.40;;;3.47;;
19285;SDS011;9776;50.798;6.430;2023-08-20T03:35:14;6.35;;;3.55;;
19285;SDS011;9776;50.798;6.430;2023-08-20T03:37:41;5.88;;;3.85;;
19285;SDS011;9776;50.798;6.430;2023-08-20T03:40:08;4.63;;;3.53;;
19285;SDS011;9776;50.798;6.430;2023-08-20T03:42:35;6.53;;;4.10;;
19285;SDS011;9776;50.798;6.430;2023-08-20T03:45:02;5.43;;;3.92;;
19285;SDS011;9776;50.798;6.430;2023-08-20T03:47:30;7.25;;;3.65;;
19285;SDS011;9776;50.798;6.430;2023-08-20T03:49:57;6.00;;;3.60;;
19285;SDS011;9776;50.798;6.430;2023-08-20T03:52:24;4.45;;;3.47;;
19285;SDS011;9776;50.798;6.430;2023-08-20T03:54:51;7.05;;;3.75;;
19285;SDS011;9776;50.798;6.430;2023-08-20T03:57:17;5.22;;;3.40;;
19285;SDS011;9776;50.798;6.430;2023-08-20T03:59:44;6.00;;;3.80;;
19285;SDS011;9776;50.798;6.430;2023-08-20T04:02:11;6.75;;;3.45;;
19285;SDS011;9776;50.798;6.430;2023-08-20T04:04:39;6.57;;;3.58;;
19285;SDS011;9776;50.798;6.430;2023-08-20T04:07:06;5.05;;;3.63;;
19285;SDS011;9776;50.798;6.430;2023-08-20T04:09:32;5.63;;;3.45;;
19285;SDS011;9776;50.798;6.430;2023-08-20T04:12:00;5.93;;;3.22;;
19285;SDS011;9776;50.798;6.430;2023-08-20T04:14:26;5.93;;;3.50;;
19285;SDS011;9776;50.798;6.430;2023-08-20T04:16:53;6.40;;;4.22;;
19285;SDS011;9776;50.798;6.430;2023-08-20T04:19:20;5.78;;;3.78;;
19285;SDS011;9776;50.798;6.430;2023-08-20T04:21:48;6.75;;;3.83;;
19285;SDS011;9776;50.798;6.430;2023-08-20T04:24:14;6.75;;;3.88;;
19285;SDS011;9776;50.798;6.430;2023-08-20T04:26:41;8.00;;;4.32;;
19285;SDS011;9776;50.798;6.430;2023-08-20T04:29:08;6.97;;;4.20;;
19285;SDS011;9776;50.798;6.430;2023-08-20T04:31:35;5.60;;;4.03;;
19285;SDS011;9776;50.798;6.430;2023-08-20T04:34:02;8.05;;;3.90;;
19285;SDS011;9776;50.798;6.430;2023-08-20T04:36:29;8.00;;;4.07;;
19285;SDS011;9776;50.798;6.430;2023-08-20T04:38:57;4.97;;;3.67;;
19285;SDS011;9776;50.798;6.430;2023-08-20T04:41:24;8.15;;;3.90;;
19285;SDS011;9776;50.798;6.430;2023-08-20T04:43:50;5.32;;;3.83;;
19285;SDS011;9776;50.798;6.430;2023-08-20T04:46:17;5.47;;;3.60;;
19285;SDS011;9776;50.798;6.430;2023-08-20T04:48:43;5.70;;;3.95;;
19285;SDS011;9776;50.798;6.430;2023-08-20T04:51:10;6.95;;;4.20;;
19285;SDS011;9776;50.798;6.430;2023-08-20T04:53:37;4.68;;;3.90;;
19285;SDS011;9776;50.798;6.430;2023-08-20T04:56:05;6.70;;;3.58;;
19285;SDS011;9776;50.798;6.430;2023-08-20T04:58:31;5.60;;;3.72;;
19285;SDS011;9776;50.798;6.430;2023-08-20T05:00:58;5.53;;;3.90;;
19285;SDS011;9776;50.798;6.430;2023-08-20T05:03:25;4.70;;;3.67;;
19285;SDS011;9776;50.798;6.430;2023-08-20T05:05:52;4.78;;;3.50;;
19285;SDS011;9776;50.798;6.430;2023-08-20T05:08:18;4.95;;;3.63;;
19285;SDS011;9776;50.798;6.430;2023-08-20T05:10:45;8.13;;;4.07;;
19285;SDS011;9776;50.798;6.430;2023-08-20T05:13:13;7.90;;;4.13;;
19285;SDS011;9776;50.798;6.430;2023-08-20T05:15:39;5.93;;;3.80;;
19285;SDS011;9776;50.798;6.430;2023-08-20T05:18:06;6.63;;;3.90;;
19285;SDS011;9776;50.798;6.430;2023-08-20T05:20:33;6.78;;;4.00;;
19285;SDS011;9776;50.798;6.430;2023-08-20T05:22:59;6.38;;;4.28;;
19285;SDS011;9776;50.798;6.430;2023-08-20T05:25:26;6.35;;;4.05;;
19285;SDS011;9776;50.798;6.430;2023-08-20T05:27:53;6.85;;;4.00;;
19285;SDS011;9776;50.798;6.430;2023-08-20T05:30:21;6.53;;;4.03;;
19285;SDS011;9776;50.798;6.430;2023-08-20T05:32:48;6.10;;;4.00;;
19285;SDS011;9776;50.798;6.430;2023-08-20T05:35:14;5.57;;;3.95;;
19285;SDS011;9776;50.798;6.430;2023-08-20T05:37:41;6.22;;;3.90;;
19285;SDS011;9776;50.798;6.430;2023-08-20T05:40:08;4.70;;;3.50;;
19285;SDS011;9776;50.798;6.430;2023-08-20T05:42:35;6.68;;;3.55;;
19285;SDS011;9776;50.798;6.430;2023-08-20T05:45:02;5.03;;;3.58;;
19285;SDS011;9776;50.798;6.430;2023-08-20T05:47:31;6.10;;;3.70;;
19285;SDS011;9776;50.798;6.430;2023-08-20T05:49:57;5.35;;;3.53;;
19285;SDS011;9776;50.798;6.430;2023-08-20T05:52:24;4.43;;;3.20;;
19285;SDS011;9776;50.798;6.430;2023-08-20T05:54:51;4.90;;;3.50;;
19285;SDS011;9776;50.798;6.430;2023-08-20T05:57:17;4.90;;;3.50;;
19285;SDS011;9776;50.798;6.430;2023-08-20T05:59:44;4.90;;;3.40;;
19285;SDS011;9776;50.798;6.430;2023-08-20T06:02:15;4.60;;;3.38;;
19285;SDS011;9776;50.798;6.430;2023-08-20T06:04:43;5.50;;;3.50;;
19285;SDS011;9776;50.798;6.430;2023-08-20T06:07:10;5.60;;;3.70;;
19285;SDS011;9776;50.798;6.430;2023-08-20T06:09:39;6.10;;;3.92;;
19285;SDS011;9776;50.798;6.430;2023-08-20T06:12:06;5.10;;;3.50;;
19285;SDS011;9776;50.798;6.430;2023-08-20T06:14:33;5.10;;;3.22;;
19285;SDS011;9776;50.798;6.430;2023-08-20T06:16:59;5.75;;;3.60;;
19285;SDS011;9776;50.798;6.430;2023-08-20T06:19:26;4.57;;;3.17;;
19285;SDS011;9776;50.798;6.430;2023-08-20T06:21:54;5.07;;;2.95;;
19285;SDS011;9776;50.798;6.430;2023-08-20T06:24:21;6.88;;;3.38;;
19285;SDS011;9776;50.798;6.430;2023-08-20T06:26:47;10.13;;;3.70;;
19285;SDS011;9776;50.798;6.430;2023-08-20T06:29:14;9.43;;;3.58;;
19285;SDS011;9776;50.798;6.430;2023-08-20T06:31:40;6.22;;;3.90;;
19285;SDS011;9776;50.798;6.430;2023-08-20T06:34:07;7.03;;;3.90;;
19285;SDS011;9776;50.798;6.430;2023-08-20T06:36:34;6.30;;;3.72;;
19285;SDS011;9776;50.798;6.430;2023-08-20T06:39:03;7.28;;;3.45;;
19285;SDS011;9776;50.798;6.430;2023-08-20T06:41:30;5.63;;;3.42;;
19285;SDS011;9776;50.798;6.430;2023-08-20T06:43:56;5.00;;;3.28;;
19285;SDS011;9776;50.798;6.430;2023-08-20T06:46:23;5.00;;;3.05;;
19285;SDS011;9776;50.798;6.430;2023-08-20T06:48:50;4.38;;;3.17;;
19285;SDS011;9776;50.798;6.430;2023-08-20T06:51:18;5.70;;;3.00;;
19285;SDS011;9776;50.798;6.430;2023-08-20T06:53:46;6.97;;;3.63;;
19285;SDS011;9776;50.798;6.430;2023-08-20T06:56:14;4.32;;;3.25;;
19285;SDS011;9776;50.798;6.430;2023-08-20T06:58:42;4.57;;;3.28;;
19285;SDS011;9776;50.798;6.430;2023-08-20T07:01:09;3.67;;;2.70;;
19285;SDS011;9776;50.798;6.430;2023-08-20T07:03:38;4.45;;;3.17;;
19285;SDS011;9776;50.798;6.430;2023-08-20T07:06:06;4.30;;;2.85;;
19285;SDS011;9776;50.798;6.430;2023-08-20T07:08:34;3.70;;;3.00;;
19285;SDS011;9776;50.798;6.430;2023-08-20T07:11:01;7.30;;;3.10;;
19285;SDS011;9776;50.798;6.430;2023-08-20T07:13:29;4.50;;;3.08;;
19285;SDS011;9776;50.798;6.430;2023-08-20T07:15:56;4.63;;;3.10;;
19285;SDS011;9776;50.798;6.430;2023-08-20T07:18:22;7.97;;;3.60;;
19285;SDS011;9776;50.798;6.430;2023-08-20T07:20:49;3.95;;;3.05;;
19285;SDS011;9776;50.798;6.430;2023-08-20T07:23:16;5.95;;;3.05;;
19285;SDS011;9776;50.798;6.430;2023-08-20T07:25:43;6.15;;;3.08;;
19285;SDS011;9776;50.798;6.430;2023-08-20T07:28:10;4.28;;;3.03;;
19285;SDS011;9776;50.798;6.430;2023-08-20T07:30:38;5.20;;;3.80;;
19285;SDS011;9776;50.798;6.430;2023-08-20T07:33:05;5.68;;;3.90;;
19285;SDS011;9776;50.798;6.430;2023-08-20T07:35:32;12.10;;;4.45;;
19285;SDS011;9776;50.798;6.430;2023-08-20T07:38:00;7.55;;;4.43;;
19285;SDS011;9776;50.798;6.430;2023-08-20T07:40:27;6.78;;;4.30;;
19285;SDS011;9776;50.798;6.430;2023-08-20T07:42:54;7.68;;;4.95;;
19285;SDS011;9776;50.798;6.430;2023-08-20T07:45:21;9.73;;;5.05;;
19285;SDS011;9776;50.798;6.430;2023-08-20T07:47:49;7.63;;;4.70;;
19285;SDS011;9776;50.798;6.430;2023-08-20T07:50:16;7.43;;;4.95;;
19285;SDS011;9776;50.798;6.430;2023-08-20T07:52:42;10.38;;;6.13;;
19285;SDS011;9776;50.798;6.430;2023-08-20T07:55:09;11.30;;;6.35;;
19285;SDS011;9776;50.798;6.430;2023-08-20T07:57:35;14.02;;;7.18;;
19285;SDS011;9776;50.798;6.430;2023-08-20T08:00:02;12.18;;;6.60;;
19285;SDS011;9776;50.798;6.430;2023-08-20T08:02:30;15.70;;;8.02;;
19285;SDS011;9776;50.798;6.430;2023-08-20T08:04:58;17.48;;;7.57;;
19285;SDS011;9776;50.798;6.430;2023-08-20T08:07:24;14.35;;;7.50;;
19285;SDS011;9776;50.798;6.430;2023-08-20T08:09:51;10.60;;;6.68;;
19285;SDS011;9776;50.798;6.430;2023-08-20T08:12:18;10.63;;;6.03;;
19285;SDS011;9776;50.798;6.430;2023-08-20T08:14:44;8.93;;;6.15;;
19285;SDS011;9776;50.798;6.430;2023-08-20T08:17:11;7.90;;;5.50;;
19285;SDS011;9776;50.798;6.430;2023-08-20T08:19:37;8.05;;;5.32;;
19285;SDS011;9776;50.798;6.430;2023-08-20T08:22:05;11.75;;;5.25;;
19285;SDS011;9776;50.798;6.430;2023-08-20T08:24:32;7.28;;;5.18;;
19285;SDS011;9776;50.798;6.430;2023-08-20T08:26:58;7.30;;;5.15;;
19285;SDS011;9776;50.798;6.430;2023-08-20T08:29:25;7.38;;;4.90;;
19285;SDS011;9776;50.798;6.430;2023-08-20T08:31:52;10.38;;;4.80;;
19285;SDS011;9776;50.798;6.430;2023-08-20T08:34:18;6.40;;;4.35;;
19285;SDS011;9776;50.798;6.430;2023-08-20T08:36:46;4.47;;;3.67;;
19285;SDS011;9776;50.798;6.430;2023-08-20T08:39:14;6.47;;;4.72;;
19285;SDS011;9776;50.798;6.430;2023-08-20T08:41:41;7.00;;;4.63;;
19285;SDS011;9776;50.798;6.430;2023-08-20T08:44:10;9.02;;;4.20;;
19285;SDS011;9776;50.798;6.430;2023-08-20T08:46:37;6.93;;;5.03;;
19285;SDS011;9776;50.798;6.430;2023-08-20T08:49:04;7.15;;;4.60;;
19285;SDS011;9776;50.798;6.430;2023-08-20T08:51:33;7.25;;;4.22;;
19285;SDS011;9776;50.798;6.430;2023-08-20T08:54:02;7.97;;;4.47;;
19285;SDS011;9776;50.798;6.430;2023-08-20T08:56:31;5.88;;;4.40;;
19285;SDS011;9776;50.798;6.430;2023-08-20T08:58:58;6.55;;;4.40;;
19285;SDS011;9776;50.798;6.430;2023-08-20T09:01:24;7.00;;;4.53;;
19285;SDS011;9776;50.798;6.430;2023-08-20T09:03:52;7.78;;;4.88;;
19285;SDS011;9776;50.798;6.430;2023-08-20T09:06:18;6.15;;;4.65;;
19285;SDS011;9776;50.798;6.430;2023-08-20T09:08:45;6.45;;;3.55;;
19285;SDS011;9776;50.798;6.430;2023-08-20T09:11:12;5.18;;;3.17;;
19285;SDS011;9776;50.798;6.430;2023-08-20T09:13:41;5.85;;;3.47;;
19285;SDS011;9776;50.798;6.430;2023-08-20T09:16:09;7.32;;;3.65;;
19285;SDS011;9776;50.798;6.430;2023-08-20T09:18:39;5.55;;;3.63;;
19285;SDS011;9776;50.798;6.430;2023-08-20T09:21:07;5.93;;;3.95;;
19285;SDS011;9776;50.798;6.430;2023-08-20T09:23:34;5.95;;;3.45;;
19285;SDS011;9776;50.798;6.430;2023-08-20T09:26:02;4.95;;;3.30;;
19285;SDS011;9776;50.798;6.430;2023-08-20T09:28:29;5.13;;;3.70;;
19285;SDS011;9776;50.798;6.430;2023-08-20T09:31:07;6.47;;;3.80;;
19285;SDS011;9776;50.798;6.430;2023-08-20T09:33:34;8.23;;;3.40;;
19285;SDS011;9776;50.798;6.430;2023-08-20T09:36:02;6.47;;;3.70;;
19285;SDS011;9776;50.798;6.430;2023-08-20T09:38:29;5.45;;;3.97;;
19285;SDS011;9776;50.798;6.430;2023-08-20T09:40:56;4.80;;;3.22;;
19285;SDS011;9776;50.798;6.430;2023-08-20T09:43:23;5.75;;;3.60;;
19285;SDS011;9776;50.798;6.430;2023-08-20T09:45:54;7.43;;;3.90;;
19285;SDS011;9776;50.798;6.430;2023-08-20T09:48:23;5.85;;;3.80;;
19285;SDS011;9776;50.798;6.430;2023-08-20T09:50:53;6.18;;;3.75;;
19285;SDS011;9776;50.798;6.430;2023-08-20T09:53:25;6.20;;;3.75;;
19285;SDS011;9776;50.798;6.430;2023-08-20T09:55:53;8.00;;;4.65;;
19285;SDS011;9776;50.798;6.430;2023-08-20T09:58:28;7.00;;;3.67;;
19285;SDS011;9776;50.798;6.430;2023-08-20T10:00:56;6.57;;;3.97;;
19285;SDS011;9776;50.798;6.430;2023-08-20T10:03:24;7.28;;;3.60;;
19285;SDS011;9776;50.798;6.430;2023-08-20T10:05:51;7.53;;;4.50;;
19285;SDS011;9776;50.798;6.430;2023-08-20T10:08:20;4.22;;;3.25;;
19285;SDS011;9776;50.798;6.430;2023-08-20T10:10:47;5.95;;;3.60;;
19285;SDS011;9776;50.798;6.430;2023-08-20T10:13:13;8.07;;;3.72;;
19285;SDS011;9776;50.798;6.430;2023-08-20T10:15:41;6.38;;;4.03;;
19285;SDS011;9776;50.798;6.430;2023-08-20T10:18:09;5.40;;;3.72;;
19285;SDS011;9776;50.798;6.430;2023-08-20T10:20:37;4.90;;;3.03;;
19285;SDS011;9776;50.798;6.430;2023-08-20T10:23:05;4.43;;;3.47;;
19285;SDS011;9776;50.798;6.430;2023-08-20T10:25:39;5.10;;;3.47;;
19285;SDS011;9776;50.798;6.430;2023-08-20T10:28:13;4.38;;;3.10;;
19285;SDS011;9776;50.798;6.430;2023-08-20T10:33:36;5.28;;;3.53;;
19285;SDS011;9776;50.798;6.430;2023-08-20T10:36:08;4.53;;;3.03;;
19285;SDS011;9776;50.798;6.430;2023-08-20T10:38:36;4.93;;;3.00;;
19285;SDS011;9776;50.798;6.430;2023-08-20T10:41:05;8.38;;;3.30;;
19285;SDS011;9776;50.798;6.430;2023-08-20T10:43:33;8.82;;;3.40;;
19285;SDS011;9776;50.798;6.430;2023-08-20T10:46:04;5.20;;;3.50;;
19285;SDS011;9776;50.798;6.430;2023-08-20T10:48:32;4.97;;;3.25;;
19285;SDS011;9776;50.798;6.430;2023-08-20T10:51:05;4.10;;;3.10;;
19285;SDS011;9776;50.798;6.430;2023-08-20T10:53:35;5.78;;;3.50;;
19285;SDS011;9776;50.798;6.430;2023-08-20T10:56:11;4.72;;;3.40;;
19285;SDS011;9776;50.798;6.430;2023-08-20T10:58:42;5.18;;;3.17;;
19285;SDS011;9776;50.798;6.430;2023-08-20T11:01:14;4.82;;;3.20;;
19285;SDS011;9776;50.798;6.430;2023-08-20T11:03:50;5.22;;;2.90;;
19285;SDS011;9776;50.798;6.430;2023-08-20T11:06:18;4.72;;;2.95;;
19285;SDS011;9776;50.798;6.430;2023-08-20T11:08:45;4.35;;;2.95;;
19285;SDS011;9776;50.798;6.430;2023-08-20T11:11:12;3.78;;;2.63;;
19285;SDS011;9776;50.798;6.430;2023-08-20T11:13:39;4.30;;;2.95;;
19285;SDS011;9776;50.798;6.430;2023-08-20T11:16:07;3.25;;;2.53;;
19285;SDS011;9776;50.798;6.430;2023-08-20T11:18:34;3.25;;;2.30;;
19285;SDS011;9776;50.798;6.430;2023-08-20T11:21:01;4.15;;;2.40;;
19285;SDS011;9776;50.798;6.430;2023-08-20T11:23:30;2.58;;;2.20;;
19285;SDS011;9776;50.798;6.430;2023-08-20T11:25:57;3.28;;;2.03;;
19285;SDS011;9776;50.798;6.430;2023-08-20T11:28:27;3.40;;;2.70;;
19285;SDS011;9776;50.798;6.430;2023-08-20T11:30:54;4.20;;;2.40;;
19285;SDS011;9776;50.798;6.430;2023-08-20T11:33:22;3.50;;;2.45;;
19285;SDS011;9776;50.798;6.430;2023-08-20T11:35:51;4.85;;;2.90;;
19285;SDS011;9776;50.798;6.430;2023-08-20T11:38:18;3.33;;;2.40;;
19285;SDS011;9776;50.798;6.430;2023-08-20T11:40:48;4.10;;;2.58;;
19285;SDS011;9776;50.798;6.430;2023-08-20T11:43:15;3.95;;;3.05;;
19285;SDS011;9776;50.798;6.430;2023-08-20T11:45:45;4.57;;;3.05;;
19285;SDS011;9776;50.798;6.430;2023-08-20T11:48:13;4.97;;;3.20;;
19285;SDS011;9776;50.798;6.430;2023-08-20T11:50:40;3.28;;;2.38;;
19285;SDS011;9776;50.798;6.430;2023-08-20T11:53:08;4.68;;;2.75;;
19285;SDS011;9776;50.798;6.430;2023-08-20T11:55:35;5.35;;;2.58;;
19285;SDS011;9776;50.798;6.430;2023-08-20T11:58:05;3.60;;;2.45;;
19285;SDS011;9776;50.798;6.430;2023-08-20T12:00:31;4.38;;;2.72;;
19285;SDS011;9776;50.798;6.430;2023-08-20T12:02:58;6.25;;;2.50;;
19285;SDS011;9776;50.798;6.430;2023-08-20T12:05:28;5.22;;;2.67;;
19285;SDS011;9776;50.798;6.430;2023-08-20T12:07:55;5.65;;;2.80;;
19285;SDS011;9776;50.798;6.430;2023-08-20T12:10:23;3.90;;;2.70;;
19285;SDS011;9776;50.798;6.430;2023-08-20T12:12:50;5.32;;;2.63;;
19285;SDS011;9776;50.798;6.430;2023-08-20T12:15:18;3.75;;;2.30;;
19285;SDS011;9776;50.798;6.430;2023-08-20T12:17:55;4.68;;;2.60;;
19285;SDS011;9776;50.798;6.430;2023-08-20T12:20:30;3.55;;;2.67;;
19285;SDS011;9776;50.798;6.430;2023-08-20T12:23:01;5.43;;;2.70;;
19285;SDS011;9776;50.798;6.430;2023-08-20T12:25:29;3.80;;;2.45;;
19285;SDS011;9776;50.798;6.430;2023-08-20T12:27:57;4.00;;;2.50;;
19285;SDS011;9776;50.798;6.430;2023-08-20T12:30:25;5.05;;;2.35;;
19285;SDS011;9776;50.798;6.430;2023-08-20T12:32:52;5.45;;;2.70;;
19285;SDS011;9776;50.798;6.430;2023-08-20T12:35:18;3.33;;;2.63;;
19285;SDS011;9776;50.798;6.430;2023-08-20T12:37:46;5.00;;;2.83;;
19285;SDS011;9776;50.798;6.430;2023-08-20T12:40:12;4.65;;;2.47;;
19285;SDS011;9776;50.798;6.430;2023-08-20T12:42:39;3.35;;;2.50;;
19285;SDS011;9776;50.798;6.430;2023-08-20T12:45:06;3.55;;;2.50;;
19285;SDS011;9776;50.798;6.430;2023-08-20T12:47:34;3.95;;;2.60;;
19285;SDS011;9776;50.798;6.430;2023-08-20T12:50:01;4.47;;;2.88;;
19285;SDS011;9776;50.798;6.430;2023-08-20T12:52:29;4.22;;;2.50;;
19285;SDS011;9776;50.798;6.430;2023-08-20T12:54:56;2.85;;;2.35;;
19285;SDS011;9776;50.798;6.430;2023-08-20T12:57:23;4.85;;;2.63;;
19285;SDS011;9776;50.798;6.430;2023-08-20T12:59:49;4.10;;;2.85;;
19285;SDS011;9776;50.798;6.430;2023-08-20T13:02:17;4.45;;;3.03;;
19285;SDS011;9776;50.798;6.430;2023-08-20T13:04:47;4.80;;;2.88;;
19285;SDS011;9776;50.798;6.430;2023-08-20T13:07:15;4.32;;;2.70;;
19285;SDS011;9776;50.798;6.430;2023-08-20T13:09:42;5.18;;;2.72;;
19285;SDS011;9776;50.798;6.430;2023-08-20T13:12:09;4.90;;;3.03;;
19285;SDS011;9776;50.798;6.430;2023-08-20T13:14:38;6.93;;;2.80;;
19285;SDS011;9776;50.798;6.430;2023-08-20T13:17:06;3.35;;;2.85;;
19285;SDS011;9776;50.798;6.430;2023-08-20T13:19:33;3.63;;;2.83;;
19285;SDS011;9776;50.798;6.430;2023-08-20T13:22:01;3.58;;;2.72;;
19285;SDS011;9776;50.798;6.430;2023-08-20T13:24:27;4.00;;;2.85;;
19285;SDS011;9776;50.798;6.430;2023-08-20T13:26:54;4.38;;;2.72;;
19285;SDS011;9776;50.798;6.430;2023-08-20T13:29:21;6.68;;;5.00;;
19285;SDS011;9776;50.798;6.430;2023-08-20T13:31:47;14.80;;;10.88;;
19285;SDS011;9776;50.798;6.430;2023-08-20T13:34:14;24.05;;;19.25;;
19285;SDS011;9776;50.798;6.430;2023-08-20T13:36:41;5.18;;;2.92;;
19285;SDS011;9776;50.798;6.430;2023-08-20T13:39:09;8.57;;;5.82;;
19285;SDS011;9776;50.798;6.430;2023-08-20T13:41:38;5.50;;;3.70;;
19285;SDS011;9776;50.798;6.430;2023-08-20T13:44:05;3.58;;;2.60;;
19285;SDS011;9776;50.798;6.430;2023-08-20T13:46:31;4.82;;;2.78;;
19285;SDS011;9776;50.798;6.430;2023-08-20T13:48:58;3.53;;;2.78;;
19285;SDS011;9776;50.798;6.430;2023-08-20T13:51:25;4.53;;;3.50;;
19285;SDS011;9776;50.798;6.430;2023-08-20T13:53:52;3.60;;;2.90;;
19285;SDS011;9776;50.798;6.430;2023-08-20T13:56:20;4.63;;;3.00;;
19285;SDS011;9776;50.798;6.430;2023-08-20T13:58:46;4.07;;;2.30;;
19285;SDS011;9776;50.798;6.430;2023-08-20T14:01:13;4.93;;;2.60;;
19285;SDS011;9776;50.798;6.430;2023-08-20T14:03:39;3.90;;;2.70;;
19285;SDS011;9776;50.798;6.430;2023-08-20T14:06:06;4.60;;;2.97;;
19285;SDS011;9776;50.798;6.430;2023-08-20T14:08:33;4.07;;;2.90;;
19285;SDS011;9776;50.798;6.430;2023-08-20T14:10:59;4.20;;;2.75;;
19285;SDS011;9776;50.798;6.430;2023-08-20T14:13:27;3.00;;;2.22;;
19285;SDS011;9776;50.798;6.430;2023-08-20T14:15:54;4.28;;;3.42;;
19285;SDS011;9776;50.798;6.430;2023-08-20T14:18:20;4.22;;;3.05;;
19285;SDS011;9776;50.798;6.430;2023-08-20T14:20:47;4.88;;;2.50;;
19285;SDS011;9776;50.798;6.430;2023-08-20T14:23:13;4.78;;;2.60;;
19285;SDS011;9776;50.798;6.430;2023-08-20T14:25:41;3.72;;;2.67;;
19285;SDS011;9776;50.798;6.430;2023-08-20T14:28:08;3.85;;;2.60;;
19285;SDS011;9776;50.798;6.430;2023-08-20T14:30:37;3.40;;;2.50;;
19285;SDS011;9776;50.798;6.430;2023-08-20T14:33:04;4.13;;;3.05;;
19285;SDS011;9776;50.798;6.430;2023-08-20T14:35:31;4.15;;;2.60;;
19285;SDS011;9776;50.798;6.430;2023-08-20T14:37:58;3.42;;;2.63;;
19285;SDS011;9776;50.798;6.430;2023-08-20T14:40:25;3.80;;;2.60;;
19285;SDS011;9776;50.798;6.430;2023-08-20T14:42:51;3.78;;;2.67;;
19285;SDS011;9776;50.798;6.430;2023-08-20T14:45:18;3.30;;;2.30;;
19285;SDS011;9776;50.798;6.430;2023-08-20T14:47:46;3.80;;;2.53;;
19285;SDS011;9776;50.798;6.430;2023-08-20T14:50:12;5.00;;;2.95;;
19285;SDS011;9776;50.798;6.430;2023-08-20T14:52:39;3.88;;;2.70;;
19285;SDS011;9776;50.798;6.430;2023-08-20T14:55:06;4.63;;;3.00;;
19285;SDS011;9776;50.798;6.430;2023-08-20T14:57:34;3.00;;;2.17;;
19285;SDS011;9776;50.798;6.430;2023-08-20T15:00:03;4.50;;;2.92;;
19285;SDS011;9776;50.798;6.430;2023-08-20T15:02:33;3.25;;;2.53;;
19285;SDS011;9776;50.798;6.430;2023-08-20T15:05:01;4.00;;;2.78;;